sensor_id;sensor_type;location;lat;lon;timestamp;P1;durP1;ratioP1;P2;durP2;ratioP2
14663;SDS011;7419;52.184;5.944;2023-04-24T00:03:12;0.15;;;0.12;;
14663;SDS011;7419;52.184;5.944;2023-04-24T00:03:12;0.31;;;0.26;;
14663;SDS011;7419;52.184;5.944;2023-04-24T00:03:12;0.13;;;0.11;;
14663;SDS011;7419;52.184;5.944;2023-04-24T00:03:39;0.20;;;0.20;;
14663;SDS011;7419;52.184;5.944;2023-04-24T00:04:39;0.20;;;0.20;;
14663;SDS011;7419;52.184;5.944;2023-04-24T00:05:39;0.19;;;0.19;;
14663;SDS011;7419;52.184;5.944;2023-04-24T00:06:39;0.10;;;0.10;;
14663;SDS011;7419;52.184;5.944;2023-04-24T00:07:39;0.21;;;0.20;;
14663;SDS011;7419;52.184;5.944;2023-04-24T00:08:39;0.14;;;0.10;;
14663;SDS011;7419;52.184;5.944;2023-04-24T00:09:39;0.78;;;0.20;;
14663;SDS011;7419;52.184;5.944;2023-04-24T00:10:39;1.56;;;0.31;;
14663;SDS011;7419;52.184;5.944;2023-04-24T00:11:39;1.23;;;0.52;;
14663;SDS011;7419;52.184;5.944;2023-04-24T00:12:39;0.27;;;0.27;;
14663;SDS011;7419;52.184;5.944;2023-04-24T00:13:39;1.56;;;0.24;;
14663;SDS011;7419;52.184;5.944;2023-04-24T00:14:39;0.61;;;0.34;;
14663;SDS011;7419;52.184;5.944;2023-04-24T00:15:40;0.46;;;0.26;;
14663;SDS011;7419;52.184;5.944;2023-04-24T00:16:40;0.38;;;0.21;;
14663;SDS011;7419;52.184;5.944;2023-04-24T00:17:40;0.23;;;0.21;;
14663;SDS011;7419;52.184;5.944;2023-04-24T00:18:40;0.10;;;0.10;;
14663;SDS011;7419;52.184;5.944;2023-04-24T00:19:40;0.52;;;0.31;;
14663;SDS011;7419;52.184;5.944;2023-04-24T00:20:40;0.35;;;0.35;;
14663;SDS011;7419;52.184;5.944;2023-04-24T00:21:40;0.35;;;0.16;;
14663;SDS011;7419;52.184;5.944;2023-04-24T00:22:40;0.48;;;0.34;;
14663;SDS011;7419;52.184;5.944;2023-04-24T00:23:40;0.24;;;0.24;;
14663;SDS011;7419;52.184;5.944;2023-04-24T00:24:40;0.20;;;0.20;;
14663;SDS011;7419;52.184;5.944;2023-04-24T00:25:40;0.22;;;0.20;;
14663;SDS011;7419;52.184;5.944;2023-04-24T00:26:40;1.07;;;0.39;;
14663;SDS011;7419;52.184;5.944;2023-04-24T00:27:40;0.32;;;0.32;;
14663;SDS011;7419;52.184;5.944;2023-04-24T00:28:40;0.44;;;0.29;;
14663;SDS011;7419;52.184;5.944;2023-04-24T00:29:40;1.20;;;0.26;;
14663;SDS011;7419;52.184;5.944;2023-04-24T00:30:40;0.47;;;0.43;;
14663;SDS011;7419;52.184;5.944;2023-04-24T00:31:40;0.30;;;0.30;;
14663;SDS011;7419;52.184;5.944;2023-04-24T00:32:41;0.30;;;0.30;;
14663;SDS011;7419;52.184;5.944;2023-04-24T00:33:41;0.93;;;0.35;;
14663;SDS011;7419;52.184;5.944;2023-04-24T00:34:41;0.70;;;0.30;;
14663;SDS011;7419;52.184;5.944;2023-04-24T00:35:41;0.44;;;0.42;;
14663;SDS011;7419;52.184;5.944;2023-04-24T00:36:41;0.31;;;0.23;;
14663;SDS011;7419;52.184;5.944;2023-04-24T00:37:41;0.30;;;0.30;;
14663;SDS011;7419;52.184;5.944;2023-04-24T00:38:41;0.39;;;0.39;;
14663;SDS011;7419;52.184;5.944;2023-04-24T00:39:41;1.04;;;0.39;;
14663;SDS011;7419;52.184;5.944;2023-04-24T00:40:41;0.30;;;0.30;;
14663;SDS011;7419;52.184;5.944;2023-04-24T00:41:41;0.40;;;0.36;;
14663;SDS011;7419;52.184;5.944;2023-04-24T00:42:41;0.16;;;0.16;;
14663;SDS011;7419;52.184;5.944;2023-04-24T00:43:41;0.32;;;0.32;;
14663;SDS011;7419;52.184;5.944;2023-04-24T00:44:41;1.09;;;0.39;;
14663;SDS011;7419;52.184;5.944;2023-04-24T00:45:41;1.56;;;0.31;;
14663;SDS011;7419;52.184;5.944;2023-04-24T00:46:42;0.50;;;0.50;;
14663;SDS011;7419;52.184;5.944;2023-04-24T00:47:41;0.32;;;0.24;;
14663;SDS011;7419;52.184;5.944;2023-04-24T00:48:41;0.23;;;0.23;;
14663;SDS011;7419;52.184;5.944;2023-04-24T00:49:42;0.51;;;0.32;;
14663;SDS011;7419;52.184;5.944;2023-04-24T00:50:42;1.96;;;0.40;;
14663;SDS011;7419;52.184;5.944;2023-04-24T00:51:42;2.11;;;0.30;;
14663;SDS011;7419;52.184;5.944;2023-04-24T00:52:42;0.28;;;0.25;;
14663;SDS011;7419;52.184;5.944;2023-04-24T00:53:42;0.40;;;0.30;;
14663;SDS011;7419;52.184;5.944;2023-04-24T00:54:42;0.34;;;0.30;;
14663;SDS011;7419;52.184;5.944;2023-04-24T00:55:42;0.30;;;0.30;;
14663;SDS011;7419;52.184;5.944;2023-04-24T00:56:42;0.31;;;0.31;;
14663;SDS011;7419;52.184;5.944;2023-04-24T00:57:42;3.88;;;0.37;;
14663;SDS011;7419;52.184;5.944;2023-04-24T00:58:42;0.27;;;0.27;;
14663;SDS011;7419;52.184;5.944;2023-04-24T00:59:42;0.39;;;0.39;;
14663;SDS011;7419;52.184;5.944;2023-04-24T01:00:42;0.29;;;0.29;;
14663;SDS011;7419;52.184;5.944;2023-04-24T01:01:42;0.48;;;0.34;;
14663;SDS011;7419;52.184;5.944;2023-04-24T01:02:43;0.27;;;0.26;;
14663;SDS011;7419;52.184;5.944;2023-04-24T01:03:42;0.33;;;0.33;;
14663;SDS011;7419;52.184;5.944;2023-04-24T01:04:42;0.52;;;0.45;;
14663;SDS011;7419;52.184;5.944;2023-04-24T01:05:43;0.75;;;0.63;;
14663;SDS011;7419;52.184;5.944;2023-04-24T01:06:43;0.23;;;0.23;;
14663;SDS011;7419;52.184;5.944;2023-04-24T01:07:44;0.68;;;0.51;;
14663;SDS011;7419;52.184;5.944;2023-04-24T01:08:43;0.54;;;0.42;;
14663;SDS011;7419;52.184;5.944;2023-04-24T01:09:43;0.64;;;0.38;;
14663;SDS011;7419;52.184;5.944;2023-04-24T01:10:43;0.40;;;0.40;;
14663;SDS011;7419;52.184;5.944;2023-04-24T01:11:43;0.48;;;0.39;;
14663;SDS011;7419;52.184;5.944;2023-04-24T01:12:43;0.27;;;0.26;;
14663;SDS011;7419;52.184;5.944;2023-04-24T01:13:43;0.31;;;0.31;;
14663;SDS011;7419;52.184;5.944;2023-04-24T01:14:43;0.43;;;0.40;;
14663;SDS011;7419;52.184;5.944;2023-04-24T01:15:43;0.33;;;0.33;;
14663;SDS011;7419;52.184;5.944;2023-04-24T01:16:43;1.43;;;0.49;;
14663;SDS011;7419;52.184;5.944;2023-04-24T01:17:43;0.43;;;0.43;;
14663;SDS011;7419;52.184;5.944;2023-04-24T01:18:43;0.29;;;0.29;;
14663;SDS011;7419;52.184;5.944;2023-04-24T01:19:44;0.43;;;0.43;;
14663;SDS011;7419;52.184;5.944;2023-04-24T01:20:44;0.58;;;0.18;;
14663;SDS011;7419;52.184;5.944;2023-04-24T01:21:44;0.38;;;0.38;;
14663;SDS011;7419;52.184;5.944;2023-04-24T01:22:44;0.21;;;0.21;;
14663;SDS011;7419;52.184;5.944;2023-04-24T01:23:44;0.59;;;0.58;;
14663;SDS011;7419;52.184;5.944;2023-04-24T01:24:44;0.40;;;0.35;;
14663;SDS011;7419;52.184;5.944;2023-04-24T01:25:44;1.13;;;0.44;;
14663;SDS011;7419;52.184;5.944;2023-04-24T01:26:44;1.14;;;0.35;;
14663;SDS011;7419;52.184;5.944;2023-04-24T01:27:44;1.13;;;0.49;;
14663;SDS011;7419;52.184;5.944;2023-04-24T01:28:44;0.57;;;0.31;;
14663;SDS011;7419;52.184;5.944;2023-04-24T01:29:44;0.39;;;0.39;;
14663;SDS011;7419;52.184;5.944;2023-04-24T01:30:44;0.50;;;0.40;;
14663;SDS011;7419;52.184;5.944;2023-04-24T01:31:44;1.30;;;0.52;;
14663;SDS011;7419;52.184;5.944;2023-04-24T01:32:44;0.76;;;0.58;;
14663;SDS011;7419;52.184;5.944;2023-04-24T01:33:44;0.31;;;0.31;;
14663;SDS011;7419;52.184;5.944;2023-04-24T01:34:45;0.49;;;0.49;;
14663;SDS011;7419;52.184;5.944;2023-04-24T01:35:45;0.42;;;0.36;;
14663;SDS011;7419;52.184;5.944;2023-04-24T01:36:45;0.67;;;0.60;;
14663;SDS011;7419;52.184;5.944;2023-04-24T01:37:45;1.02;;;0.70;;
14663;SDS011;7419;52.184;5.944;2023-04-24T01:38:45;0.46;;;0.40;;
14663;SDS011;7419;52.184;5.944;2023-04-24T01:39:45;0.86;;;0.51;;
14663;SDS011;7419;52.184;5.944;2023-04-24T01:40:45;0.35;;;0.35;;
14663;SDS011;7419;52.184;5.944;2023-04-24T01:41:45;1.59;;;0.53;;
14663;SDS011;7419;52.184;5.944;2023-04-24T01:42:45;0.35;;;0.35;;
14663;SDS011;7419;52.184;5.944;2023-04-24T01:43:45;0.64;;;0.64;;
14663;SDS011;7419;52.184;5.944;2023-04-24T01:44:45;0.52;;;0.52;;
14663;SDS011;7419;52.184;5.944;2023-04-24T01:45:45;2.13;;;0.46;;
14663;SDS011;7419;52.184;5.944;2023-04-24T01:46:45;1.13;;;0.55;;
14663;SDS011;7419;52.184;5.944;2023-04-24T01:47:45;0.48;;;0.48;;
14663;SDS011;7419;52.184;5.944;2023-04-24T01:48:46;0.54;;;0.54;;
14663;SDS011;7419;52.184;5.944;2023-04-24T01:49:46;0.60;;;0.49;;
14663;SDS011;7419;52.184;5.944;2023-04-24T01:50:46;0.48;;;0.48;;
14663;SDS011;7419;52.184;5.944;2023-04-24T01:51:46;0.66;;;0.52;;
14663;SDS011;7419;52.184;5.944;2023-04-24T01:52:46;0.56;;;0.56;;
14663;SDS011;7419;52.184;5.944;2023-04-24T01:53:46;0.48;;;0.48;;
14663;SDS011;7419;52.184;5.944;2023-04-24T01:54:46;1.20;;;0.58;;
14663;SDS011;7419;52.184;5.944;2023-04-24T01:55:46;0.57;;;0.57;;
14663;SDS011;7419;52.184;5.944;2023-04-24T01:56:46;0.53;;;0.52;;
14663;SDS011;7419;52.184;5.944;2023-04-24T01:57:46;0.42;;;0.42;;
14663;SDS011;7419;52.184;5.944;2023-04-24T01:58:46;0.54;;;0.54;;
14663;SDS011;7419;52.184;5.944;2023-04-24T01:59:46;0.32;;;0.31;;
14663;SDS011;7419;52.184;5.944;2023-04-24T02:00:46;0.46;;;0.41;;
14663;SDS011;7419;52.184;5.944;2023-04-24T02:01:46;0.41;;;0.39;;
14663;SDS011;7419;52.184;5.944;2023-04-24T02:02:46;0.39;;;0.39;;
14663;SDS011;7419;52.184;5.944;2023-04-24T02:03:46;0.43;;;0.43;;
14663;SDS011;7419;52.184;5.944;2023-04-24T02:04:46;0.26;;;0.26;;
14663;SDS011;7419;52.184;5.944;2023-04-24T02:05:46;0.62;;;0.33;;
14663;SDS011;7419;52.184;5.944;2023-04-24T02:06:46;0.31;;;0.31;;
14663;SDS011;7419;52.184;5.944;2023-04-24T02:07:47;0.36;;;0.36;;
14663;SDS011;7419;52.184;5.944;2023-04-24T02:08:47;0.48;;;0.48;;
14663;SDS011;7419;52.184;5.944;2023-04-24T02:09:47;0.51;;;0.50;;
14663;SDS011;7419;52.184;5.944;2023-04-24T02:10:47;0.44;;;0.44;;
14663;SDS011;7419;52.184;5.944;2023-04-24T02:11:47;0.77;;;0.39;;
14663;SDS011;7419;52.184;5.944;2023-04-24T02:12:47;0.46;;;0.45;;
14663;SDS011;7419;52.184;5.944;2023-04-24T02:13:47;0.31;;;0.31;;
14663;SDS011;7419;52.184;5.944;2023-04-24T02:14:47;0.41;;;0.41;;
14663;SDS011;7419;52.184;5.944;2023-04-24T02:15:47;0.91;;;0.39;;
14663;SDS011;7419;52.184;5.944;2023-04-24T02:16:47;0.74;;;0.74;;
14663;SDS011;7419;52.184;5.944;2023-04-24T02:17:47;0.96;;;0.37;;
14663;SDS011;7419;52.184;5.944;2023-04-24T02:18:47;0.46;;;0.33;;
14663;SDS011;7419;52.184;5.944;2023-04-24T02:19:48;0.54;;;0.54;;
14663;SDS011;7419;52.184;5.944;2023-04-24T02:20:47;0.70;;;0.31;;
14663;SDS011;7419;52.184;5.944;2023-04-24T02:21:47;0.40;;;0.40;;
14663;SDS011;7419;52.184;5.944;2023-04-24T02:22:47;0.30;;;0.30;;
14663;SDS011;7419;52.184;5.944;2023-04-24T02:23:47;0.92;;;0.40;;
14663;SDS011;7419;52.184;5.944;2023-04-24T02:24:48;0.34;;;0.34;;
14663;SDS011;7419;52.184;5.944;2023-04-24T02:25:48;0.58;;;0.58;;
14663;SDS011;7419;52.184;5.944;2023-04-24T02:26:48;0.64;;;0.48;;
14663;SDS011;7419;52.184;5.944;2023-04-24T02:27:48;2.04;;;0.37;;
14663;SDS011;7419;52.184;5.944;2023-04-24T02:28:48;0.48;;;0.48;;
14663;SDS011;7419;52.184;5.944;2023-04-24T02:29:48;0.52;;;0.52;;
14663;SDS011;7419;52.184;5.944;2023-04-24T02:30:48;0.40;;;0.40;;
14663;SDS011;7419;52.184;5.944;2023-04-24T02:31:48;1.47;;;0.42;;
14663;SDS011;7419;52.184;5.944;2023-04-24T02:32:48;0.55;;;0.55;;
14663;SDS011;7419;52.184;5.944;2023-04-24T02:33:48;0.55;;;0.54;;
14663;SDS011;7419;52.184;5.944;2023-04-24T02:34:48;0.33;;;0.33;;
14663;SDS011;7419;52.184;5.944;2023-04-24T02:35:48;0.78;;;0.73;;
14663;SDS011;7419;52.184;5.944;2023-04-24T02:36:48;0.30;;;0.30;;
14663;SDS011;7419;52.184;5.944;2023-04-24T02:37:48;1.35;;;0.30;;
14663;SDS011;7419;52.184;5.944;2023-04-24T02:38:48;0.95;;;0.45;;
14663;SDS011;7419;52.184;5.944;2023-04-24T02:39:48;1.89;;;0.34;;
14663;SDS011;7419;52.184;5.944;2023-04-24T02:40:49;0.44;;;0.44;;
14663;SDS011;7419;52.184;5.944;2023-04-24T02:41:49;1.79;;;0.46;;
14663;SDS011;7419;52.184;5.944;2023-04-24T02:42:49;0.65;;;0.47;;
14663;SDS011;7419;52.184;5.944;2023-04-24T02:43:49;0.40;;;0.40;;
14663;SDS011;7419;52.184;5.944;2023-04-24T02:44:49;0.56;;;0.56;;
14663;SDS011;7419;52.184;5.944;2023-04-24T02:45:49;0.40;;;0.40;;
14663;SDS011;7419;52.184;5.944;2023-04-24T02:46:49;1.85;;;0.44;;
14663;SDS011;7419;52.184;5.944;2023-04-24T02:47:49;0.68;;;0.51;;
14663;SDS011;7419;52.184;5.944;2023-04-24T02:48:49;0.72;;;0.72;;
14663;SDS011;7419;52.184;5.944;2023-04-24T02:49:49;0.57;;;0.47;;
14663;SDS011;7419;52.184;5.944;2023-04-24T02:50:49;0.43;;;0.43;;
14663;SDS011;7419;52.184;5.944;2023-04-24T02:51:49;0.41;;;0.33;;
14663;SDS011;7419;52.184;5.944;2023-04-24T02:52:49;1.66;;;0.42;;
14663;SDS011;7419;52.184;5.944;2023-04-24T02:53:49;0.95;;;0.44;;
14663;SDS011;7419;52.184;5.944;2023-04-24T02:54:49;0.86;;;0.47;;
14663;SDS011;7419;52.184;5.944;2023-04-24T02:55:49;0.49;;;0.42;;
14663;SDS011;7419;52.184;5.944;2023-04-24T02:56:50;0.73;;;0.49;;
14663;SDS011;7419;52.184;5.944;2023-04-24T02:57:50;0.78;;;0.66;;
14663;SDS011;7419;52.184;5.944;2023-04-24T02:58:50;0.58;;;0.49;;
14663;SDS011;7419;52.184;5.944;2023-04-24T02:59:50;0.43;;;0.43;;
14663;SDS011;7419;52.184;5.944;2023-04-24T03:00:52;0.37;;;0.37;;
14663;SDS011;7419;52.184;5.944;2023-04-24T03:01:50;0.46;;;0.46;;
14663;SDS011;7419;52.184;5.944;2023-04-24T03:02:50;0.73;;;0.43;;
14663;SDS011;7419;52.184;5.944;2023-04-24T03:03:50;0.40;;;0.40;;
14663;SDS011;7419;52.184;5.944;2023-04-24T03:04:50;0.30;;;0.30;;
14663;SDS011;7419;52.184;5.944;2023-04-24T03:05:50;0.51;;;0.47;;
14663;SDS011;7419;52.184;5.944;2023-04-24T03:06:50;0.57;;;0.57;;
14663;SDS011;7419;52.184;5.944;2023-04-24T03:07:50;0.43;;;0.43;;
14663;SDS011;7419;52.184;5.944;2023-04-24T03:08:50;2.00;;;0.42;;
14663;SDS011;7419;52.184;5.944;2023-04-24T03:09:50;0.44;;;0.31;;
14663;SDS011;7419;52.184;5.944;2023-04-24T03:10:50;0.38;;;0.38;;
14663;SDS011;7419;52.184;5.944;2023-04-24T03:11:50;0.40;;;0.40;;
14663;SDS011;7419;52.184;5.944;2023-04-24T03:12:51;0.51;;;0.44;;
14663;SDS011;7419;52.184;5.944;2023-04-24T03:13:51;0.47;;;0.46;;
14663;SDS011;7419;52.184;5.944;2023-04-24T03:14:51;0.43;;;0.43;;
14663;SDS011;7419;52.184;5.944;2023-04-24T03:15:51;0.91;;;0.38;;
14663;SDS011;7419;52.184;5.944;2023-04-24T03:16:51;0.35;;;0.35;;
14663;SDS011;7419;52.184;5.944;2023-04-24T03:17:51;0.59;;;0.41;;
14663;SDS011;7419;52.184;5.944;2023-04-24T03:18:51;0.39;;;0.39;;
14663;SDS011;7419;52.184;5.944;2023-04-24T03:19:51;0.54;;;0.43;;
14663;SDS011;7419;52.184;5.944;2023-04-24T03:20:51;0.41;;;0.41;;
14663;SDS011;7419;52.184;5.944;2023-04-24T03:21:51;0.34;;;0.33;;
14663;SDS011;7419;52.184;5.944;2023-04-24T03:22:51;1.13;;;0.35;;
14663;SDS011;7419;52.184;5.944;2023-04-24T03:23:51;0.45;;;0.45;;
14663;SDS011;7419;52.184;5.944;2023-04-24T03:24:51;0.37;;;0.30;;
14663;SDS011;7419;52.184;5.944;2023-04-24T03:25:51;0.50;;;0.26;;
14663;SDS011;7419;52.184;5.944;2023-04-24T03:26:51;0.43;;;0.30;;
14663;SDS011;7419;52.184;5.944;2023-04-24T03:27:51;0.34;;;0.34;;
14663;SDS011;7419;52.184;5.944;2023-04-24T03:28:52;0.38;;;0.33;;
14663;SDS011;7419;52.184;5.944;2023-04-24T03:29:52;0.49;;;0.49;;
14663;SDS011;7419;52.184;5.944;2023-04-24T03:30:52;0.90;;;0.60;;
14663;SDS011;7419;52.184;5.944;2023-04-24T03:31:52;0.37;;;0.37;;
14663;SDS011;7419;52.184;5.944;2023-04-24T03:32:52;0.26;;;0.26;;
14663;SDS011;7419;52.184;5.944;2023-04-24T03:33:52;0.97;;;0.32;;
14663;SDS011;7419;52.184;5.944;2023-04-24T03:34:52;0.42;;;0.26;;
14663;SDS011;7419;52.184;5.944;2023-04-24T03:35:52;0.26;;;0.26;;
14663;SDS011;7419;52.184;5.944;2023-04-24T03:36:52;1.08;;;0.29;;
14663;SDS011;7419;52.184;5.944;2023-04-24T03:37:52;0.38;;;0.33;;
14663;SDS011;7419;52.184;5.944;2023-04-24T03:38:52;0.60;;;0.50;;
14663;SDS011;7419;52.184;5.944;2023-04-24T03:39:52;0.46;;;0.29;;
14663;SDS011;7419;52.184;5.944;2023-04-24T03:40:53;0.39;;;0.39;;
14663;SDS011;7419;52.184;5.944;2023-04-24T03:41:52;0.60;;;0.28;;
14663;SDS011;7419;52.184;5.944;2023-04-24T03:42:53;0.30;;;0.30;;
14663;SDS011;7419;52.184;5.944;2023-04-24T03:43:53;1.30;;;0.39;;
14663;SDS011;7419;52.184;5.944;2023-04-24T03:44:53;0.22;;;0.21;;
14663;SDS011;7419;52.184;5.944;2023-04-24T03:45:53;0.34;;;0.34;;
14663;SDS011;7419;52.184;5.944;2023-04-24T03:46:53;0.65;;;0.35;;
14663;SDS011;7419;52.184;5.944;2023-04-24T03:47:53;0.39;;;0.17;;
14663;SDS011;7419;52.184;5.944;2023-04-24T03:48:53;0.13;;;0.12;;
14663;SDS011;7419;52.184;5.944;2023-04-24T03:49:53;0.41;;;0.41;;
14663;SDS011;7419;52.184;5.944;2023-04-24T03:50:54;0.25;;;0.25;;
14663;SDS011;7419;52.184;5.944;2023-04-24T03:51:53;0.29;;;0.29;;
14663;SDS011;7419;52.184;5.944;2023-04-24T03:52:53;0.34;;;0.34;;
14663;SDS011;7419;52.184;5.944;2023-04-24T03:53:53;0.42;;;0.36;;
14663;SDS011;7419;52.184;5.944;2023-04-24T03:54:53;0.44;;;0.42;;
14663;SDS011;7419;52.184;5.944;2023-04-24T03:55:53;0.44;;;0.35;;
14663;SDS011;7419;52.184;5.944;2023-04-24T03:56:54;0.24;;;0.24;;
14663;SDS011;7419;52.184;5.944;2023-04-24T03:57:54;0.32;;;0.32;;
14663;SDS011;7419;52.184;5.944;2023-04-24T03:58:54;0.46;;;0.31;;
14663;SDS011;7419;52.184;5.944;2023-04-24T03:59:54;0.41;;;0.37;;
14663;SDS011;7419;52.184;5.944;2023-04-24T04:00:54;0.42;;;0.42;;
14663;SDS011;7419;52.184;5.944;2023-04-24T04:01:54;0.56;;;0.34;;
14663;SDS011;7419;52.184;5.944;2023-04-24T04:02:54;0.59;;;0.52;;
14663;SDS011;7419;52.184;5.944;2023-04-24T04:03:54;0.15;;;0.15;;
14663;SDS011;7419;52.184;5.944;2023-04-24T04:04:54;0.52;;;0.52;;
14663;SDS011;7419;52.184;5.944;2023-04-24T04:05:54;1.91;;;0.31;;
14663;SDS011;7419;52.184;5.944;2023-04-24T04:06:54;0.49;;;0.49;;
14663;SDS011;7419;52.184;5.944;2023-04-24T04:07:54;0.41;;;0.41;;
14663;SDS011;7419;52.184;5.944;2023-04-24T04:08:54;0.38;;;0.38;;
14663;SDS011;7419;52.184;5.944;2023-04-24T04:09:54;0.53;;;0.53;;
14663;SDS011;7419;52.184;5.944;2023-04-24T04:10:54;0.40;;;0.40;;
14663;SDS011;7419;52.184;5.944;2023-04-24T04:11:55;0.55;;;0.39;;
14663;SDS011;7419;52.184;5.944;2023-04-24T04:12:55;0.40;;;0.40;;
14663;SDS011;7419;52.184;5.944;2023-04-24T04:13:55;0.93;;;0.50;;
14663;SDS011;7419;52.184;5.944;2023-04-24T04:14:55;0.82;;;0.40;;
14663;SDS011;7419;52.184;5.944;2023-04-24T04:15:55;0.83;;;0.40;;
14663;SDS011;7419;52.184;5.944;2023-04-24T04:16:55;0.35;;;0.35;;
14663;SDS011;7419;52.184;5.944;2023-04-24T04:17:55;0.60;;;0.45;;
14663;SDS011;7419;52.184;5.944;2023-04-24T04:18:55;0.43;;;0.43;;
14663;SDS011;7419;52.184;5.944;2023-04-24T04:19:55;0.54;;;0.52;;
14663;SDS011;7419;52.184;5.944;2023-04-24T04:20:55;0.75;;;0.42;;
14663;SDS011;7419;52.184;5.944;2023-04-24T04:21:55;1.02;;;0.52;;
14663;SDS011;7419;52.184;5.944;2023-04-24T04:22:55;0.57;;;0.43;;
14663;SDS011;7419;52.184;5.944;2023-04-24T04:23:55;0.50;;;0.36;;
14663;SDS011;7419;52.184;5.944;2023-04-24T04:24:55;2.66;;;0.37;;
14663;SDS011;7419;52.184;5.944;2023-04-24T04:25:56;0.91;;;0.43;;
14663;SDS011;7419;52.184;5.944;2023-04-24T04:26:56;0.30;;;0.30;;
14663;SDS011;7419;52.184;5.944;2023-04-24T04:27:56;2.07;;;0.36;;
14663;SDS011;7419;52.184;5.944;2023-04-24T04:28:56;0.47;;;0.47;;
14663;SDS011;7419;52.184;5.944;2023-04-24T04:29:56;0.53;;;0.47;;
14663;SDS011;7419;52.184;5.944;2023-04-24T04:30:56;0.50;;;0.50;;
14663;SDS011;7419;52.184;5.944;2023-04-24T04:31:56;0.40;;;0.40;;
14663;SDS011;7419;52.184;5.944;2023-04-24T04:32:56;0.52;;;0.49;;
14663;SDS011;7419;52.184;5.944;2023-04-24T04:33:56;0.62;;;0.62;;
14663;SDS011;7419;52.184;5.944;2023-04-24T04:34:56;1.77;;;1.01;;
14663;SDS011;7419;52.184;5.944;2023-04-24T04:35:58;1.18;;;0.70;;
14663;SDS011;7419;52.184;5.944;2023-04-24T04:36:56;1.34;;;0.97;;
14663;SDS011;7419;52.184;5.944;2023-04-24T04:37:56;1.14;;;1.06;;
14663;SDS011;7419;52.184;5.944;2023-04-24T04:38:56;2.02;;;1.03;;
14663;SDS011;7419;52.184;5.944;2023-04-24T04:39:56;0.80;;;0.74;;
14663;SDS011;7419;52.184;5.944;2023-04-24T04:40:56;1.33;;;0.86;;
14663;SDS011;7419;52.184;5.944;2023-04-24T04:41:56;0.54;;;0.49;;
14663;SDS011;7419;52.184;5.944;2023-04-24T04:42:56;0.48;;;0.48;;
14663;SDS011;7419;52.184;5.944;2023-04-24T04:43:57;0.53;;;0.53;;
14663;SDS011;7419;52.184;5.944;2023-04-24T04:44:57;0.86;;;0.36;;
14663;SDS011;7419;52.184;5.944;2023-04-24T04:45:57;1.44;;;0.38;;
14663;SDS011;7419;52.184;5.944;2023-04-24T04:46:57;0.56;;;0.43;;
14663;SDS011;7419;52.184;5.944;2023-04-24T04:47:57;1.25;;;0.33;;
14663;SDS011;7419;52.184;5.944;2023-04-24T04:48:57;0.80;;;0.30;;
14663;SDS011;7419;52.184;5.944;2023-04-24T04:49:57;0.21;;;0.21;;
14663;SDS011;7419;52.184;5.944;2023-04-24T04:50:58;1.35;;;0.38;;
14663;SDS011;7419;52.184;5.944;2023-04-24T04:51:58;0.26;;;0.24;;
14663;SDS011;7419;52.184;5.944;2023-04-24T04:52:57;0.20;;;0.20;;
14663;SDS011;7419;52.184;5.944;2023-04-24T04:53:57;0.29;;;0.29;;
14663;SDS011;7419;52.184;5.944;2023-04-24T04:54:57;0.96;;;0.25;;
14663;SDS011;7419;52.184;5.944;2023-04-24T04:55:57;0.83;;;0.29;;
14663;SDS011;7419;52.184;5.944;2023-04-24T04:56:57;0.31;;;0.31;;
14663;SDS011;7419;52.184;5.944;2023-04-24T04:57:57;0.55;;;0.25;;
14663;SDS011;7419;52.184;5.944;2023-04-24T04:58:58;0.56;;;0.37;;
14663;SDS011;7419;52.184;5.944;2023-04-24T04:59:58;1.08;;;0.33;;
14663;SDS011;7419;52.184;5.944;2023-04-24T05:00:58;1.22;;;0.13;;
14663;SDS011;7419;52.184;5.944;2023-04-24T05:01:58;0.32;;;0.24;;
14663;SDS011;7419;52.184;5.944;2023-04-24T05:02:58;0.66;;;0.11;;
14663;SDS011;7419;52.184;5.944;2023-04-24T05:03:58;0.54;;;0.26;;
14663;SDS011;7419;52.184;5.944;2023-04-24T05:04:58;1.69;;;0.20;;
14663;SDS011;7419;52.184;5.944;2023-04-24T05:05:58;0.99;;;0.37;;
14663;SDS011;7419;52.184;5.944;2023-04-24T05:06:58;1.10;;;0.24;;
14663;SDS011;7419;52.184;5.944;2023-04-24T05:07:58;1.09;;;0.26;;
14663;SDS011;7419;52.184;5.944;2023-04-24T05:08:58;0.10;;;0.10;;
14663;SDS011;7419;52.184;5.944;2023-04-24T05:09:58;0.31;;;0.20;;
14663;SDS011;7419;52.184;5.944;2023-04-24T05:10:58;0.09;;;0.09;;
14663;SDS011;7419;52.184;5.944;2023-04-24T05:11:58;0.12;;;0.10;;
14663;SDS011;7419;52.184;5.944;2023-04-24T05:12:58;0.22;;;0.15;;
14663;SDS011;7419;52.184;5.944;2023-04-24T05:13:59;0.07;;;0.07;;
14663;SDS011;7419;52.184;5.944;2023-04-24T05:14:59;0.06;;;0.06;;
14663;SDS011;7419;52.184;5.944;2023-04-24T05:15:59;0.50;;;0.12;;
14663;SDS011;7419;52.184;5.944;2023-04-24T05:16:59;0.83;;;0.11;;
14663;SDS011;7419;52.184;5.944;2023-04-24T05:17:59;0.10;;;0.10;;
14663;SDS011;7419;52.184;5.944;2023-04-24T05:18:59;0.11;;;0.04;;
14663;SDS011;7419;52.184;5.944;2023-04-24T05:19:59;0.05;;;0.04;;
14663;SDS011;7419;52.184;5.944;2023-04-24T05:20:59;-0.00;;;-0.00;;
14663;SDS011;7419;52.184;5.944;2023-04-24T05:21:59;0.18;;;0.06;;
14663;SDS011;7419;52.184;5.944;2023-04-24T05:22:59;0.08;;;0.08;;
14663;SDS011;7419;52.184;5.944;2023-04-24T05:23:59;0.20;;;0.20;;
14663;SDS011;7419;52.184;5.944;2023-04-24T05:24:59;2.23;;;0.10;;
14663;SDS011;7419;52.184;5.944;2023-04-24T05:25:59;1.89;;;0.10;;
14663;SDS011;7419;52.184;5.944;2023-04-24T05:26:59;0.03;;;0.03;;
14663;SDS011;7419;52.184;5.944;2023-04-24T05:27:59;0.06;;;0.06;;
14663;SDS011;7419;52.184;5.944;2023-04-24T05:28:59;-0.00;;;-0.00;;
14663;SDS011;7419;52.184;5.944;2023-04-24T05:30:00;0.01;;;0.01;;
14663;SDS011;7419;52.184;5.944;2023-04-24T05:31:00;0.02;;;0.02;;
14663;SDS011;7419;52.184;5.944;2023-04-24T05:32:00;0.05;;;0.05;;
14663;SDS011;7419;52.184;5.944;2023-04-24T05:33:00;0.02;;;0.02;;
14663;SDS011;7419;52.184;5.944;2023-04-24T05:34:00;-0.00;;;-0.00;;
14663;SDS011;7419;52.184;5.944;2023-04-24T05:35:00;0.01;;;0.00;;
14663;SDS011;7419;52.184;5.944;2023-04-24T05:36:00;-0.00;;;-0.00;;
14663;SDS011;7419;52.184;5.944;2023-04-24T05:37:00;-0.00;;;-0.00;;
14663;SDS011;7419;52.184;5.944;2023-04-24T05:38:00;0.01;;;0.01;;
14663;SDS011;7419;52.184;5.944;2023-04-24T05:39:00;0.32;;;0.10;;
14663;SDS011;7419;52.184;5.944;2023-04-24T05:40:00;0.22;;;0.03;;
14663;SDS011;7419;52.184;5.944;2023-04-24T05:41:00;-0.00;;;-0.00;;
14663;SDS011;7419;52.184;5.944;2023-04-24T05:42:00;-0.00;;;-0.00;;
14663;SDS011;7419;52.184;5.944;2023-04-24T05:43:00;0.44;;;0.08;;
14663;SDS011;7419;52.184;5.944;2023-04-24T05:44:01;0.08;;;-0.00;;
14663;SDS011;7419;52.184;5.944;2023-04-24T05:45:01;0.09;;;0.08;;
14663;SDS011;7419;52.184;5.944;2023-04-24T05:46:01;-0.00;;;-0.00;;
14663;SDS011;7419;52.184;5.944;2023-04-24T05:47:01;-0.00;;;-0.00;;
14663;SDS011;7419;52.184;5.944;2023-04-24T05:48:01;2.10;;;0.12;;
14663;SDS011;7419;52.184;5.944;2023-04-24T05:49:01;0.05;;;0.05;;
14663;SDS011;7419;52.184;5.944;2023-04-24T05:50:01;-0.00;;;-0.00;;
14663;SDS011;7419;52.184;5.944;2023-04-24T05:51:01;-0.00;;;-0.00;;
14663;SDS011;7419;52.184;5.944;2023-04-24T05:52:01;0.26;;;0.09;;
14663;SDS011;7419;52.184;5.944;2023-04-24T05:53:01;0.68;;;0.08;;
14663;SDS011;7419;52.184;5.944;2023-04-24T05:54:01;0.13;;;0.03;;
14663;SDS011;7419;52.184;5.944;2023-04-24T05:55:02;0.07;;;-0.00;;
14663;SDS011;7419;52.184;5.944;2023-04-24T05:56:01;0.03;;;0.03;;
14663;SDS011;7419;52.184;5.944;2023-04-24T05:57:01;0.43;;;0.04;;
14663;SDS011;7419;52.184;5.944;2023-04-24T05:58:01;0.20;;;0.10;;
14663;SDS011;7419;52.184;5.944;2023-04-24T05:59:01;-0.00;;;-0.00;;
14663;SDS011;7419;52.184;5.944;2023-04-24T06:00:03;0.08;;;0.08;;
14663;SDS011;7419;52.184;5.944;2023-04-24T06:01:01;4.91;;;0.10;;
14663;SDS011;7419;52.184;5.944;2023-04-24T06:02:01;-0.00;;;-0.00;;
14663;SDS011;7419;52.184;5.944;2023-04-24T06:03:02;0.28;;;0.10;;
14663;SDS011;7419;52.184;5.944;2023-04-24T06:04:02;-0.00;;;-0.00;;
14663;SDS011;7419;52.184;5.944;2023-04-24T06:05:02;-0.00;;;-0.00;;
14663;SDS011;7419;52.184;5.944;2023-04-24T06:06:02;0.02;;;0.02;;
14663;SDS011;7419;52.184;5.944;2023-04-24T06:07:02;0.03;;;0.03;;